首页
METAR-TAF:

METAR-TAF

机场 :

Granite Falls Municipal Airport (Lenzen-Roe Memorial Field)

Granite Falls, 明尼蘇達州, 美国

纬度: 44-45-11N, 经度: 095-33-21W, 海拔: 319米

当前天气观测

该预报发布于11分钟前的21:35 UTC
风速5节,风向东转东北
温度 25°C
湿度 44%
气压 1008 hPa
能見度: 16.1公里
散云层高于9000英尺

METAR: KGDB 192135Z AUTO 07005KT 10SM SCT090 25/12 A2976 RMK AO2 T02540115

时间: 16:46 (21:46 UTC)


TAF: 丢失

超过4000个机场的气象观测和天气预报(METAR&TAF报告)。

可查询的气象台以黄色和红色小点在地图上表示。

将鼠标移到小点上方,可查看气象台名称。

然后点击查看天气观测和预报。

如需切换地图:点击带黑十字的绿色按钮放大地图;点击带横线的绿色按钮缩小地图;或者点击绿色箭头查看邻近地区的地图。


METAR-TAF: